Time;durP1;ratioP1;P1;durP2;ratioP2;P2;SDS_P1;SDS_P2;PMS_P1;PMS_P2;Temp;Humidity;BMP_temperature;BMP_pressure;BME280_temperature;BME280_humidity;BME280_pressure;Samples;Min_cycle;Max_cycle;Signal;HPM_P1;HPM_P2
2023/11/14 00:00:20;;;;;;;52.45;8.68;;;13.80;99.90;;;;;;4938582;28;38416;-80
2023/11/14 00:02:46;;;;;;;59.72;9.57;;;13.70;99.90;;;;;;4951280;28;37658;-79
2023/11/14 00:05:12;;;;;;;53.83;10.00;;;13.80;99.90;;;;;;4947808;28;38051;-79
2023/11/14 00:07:38;;;;;;;58.22;9.30;;;13.70;99.90;;;;;;4943996;28;37155;-80
2023/11/14 00:10:05;;;;;;;51.35;8.90;;;13.70;99.90;;;;;;4963195;28;38516;-80
2023/11/14 00:12:31;;;;;;;55.33;8.43;;;13.60;99.90;;;;;;4960430;28;37405;-80
2023/11/14 00:14:57;;;;;;;48.50;8.50;;;13.60;99.90;;;;;;4958960;28;39240;-80
2023/11/14 00:17:24;;;;;;;49.10;9.10;;;13.60;99.90;;;;;;4953856;28;39124;-79
2023/11/14 00:19:50;;;;;;;62.35;9.23;;;13.60;99.90;;;;;;4933292;28;37145;-80
2023/11/14 00:22:16;;;;;;;51.72;8.52;;;13.60;99.90;;;;;;4937215;28;35971;-80
2023/11/14 00:24:42;;;;;;;64.47;10.63;;;13.60;99.90;;;;;;4940405;28;37846;-80
2023/11/14 00:27:09;;;;;;;38.40;7.57;;;13.60;99.90;;;;;;4937889;28;37080;-80
2023/11/14 00:29:35;;;;;;;61.55;9.23;;;13.70;99.90;;;;;;4951761;28;39201;-80
2023/11/14 00:32:02;;;;;;;45.95;7.95;;;13.70;99.90;;;;;;4933278;28;36454;-80
2023/11/14 00:34:29;;;;;;;54.15;9.23;;;13.70;99.90;;;;;;4931712;28;37547;-80
2023/11/14 00:36:56;;;;;;;50.08;8.05;;;13.70;99.90;;;;;;4950355;28;39410;-79
2023/11/14 00:39:22;;;;;;;60.97;10.05;;;13.80;99.90;;;;;;4937465;28;36891;-80
2023/11/14 00:41:53;;;;;;;55.85;9.55;;;13.70;99.90;;;;;;4930440;28;36344;-80
2023/11/14 00:44:24;;;;;;;41.00;7.82;;;13.70;99.90;;;;;;4951559;28;38784;-80
2023/11/14 00:46:50;;;;;;;48.05;8.23;;;13.70;99.90;;;;;;4938495;28;36286;-80
2023/11/14 00:49:16;;;;;;;38.45;7.55;;;13.80;99.90;;;;;;4937471;28;37036;-80
2023/11/14 00:51:42;;;;;;;52.55;8.38;;;13.80;99.90;;;;;;4940407;28;36067;-80
2023/11/14 00:54:08;;;;;;;62.70;9.75;;;13.70;99.90;;;;;;4929958;28;38848;-80
2023/11/14 00:56:34;;;;;;;46.67;9.20;;;13.70;99.90;;;;;;4963341;28;38249;-80
2023/11/14 00:59:04;;;;;;;49.33;9.15;;;13.70;99.90;;;;;;4946639;28;38093;-79
2023/11/14 01:01:30;;;;;;;55.17;9.00;;;13.70;99.90;;;;;;4953273;28;49232;-80
2023/11/14 01:03:57;;;;;;;54.55;8.68;;;13.70;99.90;;;;;;4956142;28;39056;-79
2023/11/14 01:06:23;;;;;;;50.63;8.55;;;13.70;99.90;;;;;;4949849;28;38862;-79
2023/11/14 01:08:49;;;;;;;51.80;7.97;;;13.70;99.90;;;;;;4940632;28;37260;-79
2023/11/14 01:11:16;;;;;;;52.30;8.63;;;13.70;99.90;;;;;;4935257;28;37157;-79
2023/11/14 01:13:42;;;;;;;59.05;9.07;;;13.70;99.90;;;;;;4930118;28;37867;-80
2023/11/14 01:16:15;;;;;;;52.33;8.70;;;13.70;99.90;;;;;;4938039;28;38415;-80
2023/11/14 01:18:41;;;;;;;58.42;10.57;;;13.70;99.90;;;;;;4953736;28;38337;-80
2023/11/14 01:21:07;;;;;;;51.00;8.55;;;13.70;99.90;;;;;;4929329;28;36256;-78
2023/11/14 01:23:34;;;;;;;44.47;7.93;;;13.70;99.90;;;;;;4938029;28;38333;-78
2023/11/14 01:26:03;;;;;;;43.83;8.23;;;13.70;99.90;;;;;;4945243;28;38112;-79
2023/11/14 01:28:29;;;;;;;48.50;8.30;;;13.70;99.90;;;;;;4941219;28;47119;-79
2023/11/14 01:30:55;;;;;;;52.85;8.48;;;13.70;99.90;;;;;;4945392;28;35924;-79
2023/11/14 01:33:33;;;;;;;43.42;7.53;;;13.70;99.90;;;;;;4926216;28;37681;-79
2023/11/14 01:35:59;;;;;;;58.65;9.15;;;13.70;99.90;;;;;;4928383;28;38888;-78
2023/11/14 01:38:27;;;;;;;46.88;7.63;;;13.70;99.90;;;;;;4937186;28;37349;-79
2023/11/14 01:40:53;;;;;;;52.15;8.52;;;13.60;99.90;;;;;;4940744;28;37756;-79
2023/11/14 01:43:19;;;;;;;58.08;9.63;;;13.70;99.90;;;;;;4938027;28;39355;-79
2023/11/14 01:45:45;;;;;;;47.15;8.50;;;13.70;99.90;;;;;;4932426;28;38440;-79
2023/11/14 01:48:12;;;;;;;45.03;8.70;;;13.70;99.90;;;;;;4944556;28;37515;-79
2023/11/14 01:50:39;;;;;;;55.10;9.52;;;13.70;99.90;;;;;;4935546;28;38502;-80
2023/11/14 01:53:07;;;;;;;52.53;9.20;;;13.70;99.90;;;;;;4953996;28;39561;-79
2023/11/14 01:55:35;;;;;;;43.53;7.43;;;13.70;99.90;;;;;;4934741;28;37652;-79
2023/11/14 01:58:02;;;;;;;58.95;9.88;;;13.70;99.90;;;;;;4936805;28;35713;-79
2023/11/14 02:03:12;;;;;;;56.35;9.75;;;13.70;99.90;;;;;;5333781;23;20055;-79
2023/11/14 02:05:39;;;;;;;47.17;8.88;;;13.70;99.90;;;;;;4948598;28;37305;-79
2023/11/14 02:08:05;;;;;;;46.88;8.55;;;13.80;99.90;;;;;;4949436;28;36854;-79
2023/11/14 02:10:31;;;;;;;48.72;9.40;;;13.80;99.90;;;;;;4953820;28;36490;-79
2023/11/14 02:12:57;;;;;;;47.08;8.77;;;13.80;99.90;;;;;;4956064;28;37654;-79
2023/11/14 02:15:24;;;;;;;48.05;7.70;;;13.80;99.90;;;;;;4967255;28;38945;-79
2023/11/14 02:17:50;;;;;;;56.10;8.82;;;13.80;99.90;;;;;;4958333;28;37758;-79
2023/11/14 02:20:16;;;;;;;52.70;8.70;;;13.90;99.90;;;;;;4943674;28;36824;-79
2023/11/14 02:22:43;;;;;;;44.67;7.60;;;13.90;99.90;;;;;;4963044;28;38911;-79
2023/11/14 02:25:09;;;;;;;48.97;8.15;;;13.90;99.90;;;;;;4949857;28;38127;-79
2023/11/14 02:27:36;;;;;;;52.00;8.00;;;13.90;99.90;;;;;;4964866;28;37939;-79
2023/11/14 02:30:03;;;;;;;45.42;8.75;;;13.90;99.90;;;;;;4949596;28;35766;-80
2023/11/14 02:32:30;;;;;;;46.20;7.75;;;13.80;99.90;;;;;;4970141;28;38931;-80
2023/11/14 02:34:57;;;;;;;42.75;8.30;;;13.90;99.90;;;;;;4948961;28;37656;-79
2023/11/14 02:37:24;;;;;;;43.20;8.05;;;13.90;99.90;;;;;;4965910;28;38062;-79
2023/11/14 02:39:50;;;;;;;43.95;7.28;;;13.90;99.90;;;;;;4951081;28;35998;-79
2023/11/14 02:42:16;;;;;;;44.90;7.18;;;13.90;99.90;;;;;;4969608;28;38783;-80
2023/11/14 02:44:43;;;;;;;48.17;8.93;;;14.00;99.90;;;;;;4968364;28;38819;-79
2023/11/14 02:47:10;;;;;;;44.13;7.30;;;13.90;99.90;;;;;;4950528;28;35960;-79
2023/11/14 02:49:59;;;;;;;41.58;6.40;;;13.90;99.90;;;;;;4965554;28;38184;-79
2023/11/14 02:52:26;;;;;;;48.92;7.75;;;13.90;99.90;;;;;;4968188;28;38432;-79
2023/11/14 02:54:52;;;;;;;47.72;7.90;;;13.90;99.90;;;;;;4957291;28;37106;-79
2023/11/14 02:57:18;;;;;;;40.35;7.65;;;13.90;99.90;;;;;;4948944;28;36900;-80
2023/11/14 02:59:48;;;;;;;46.42;8.15;;;13.90;99.90;;;;;;4947507;28;36137;-80
2023/11/14 03:02:14;;;;;;;39.92;7.53;;;13.90;99.90;;;;;;4948956;28;37715;-79
2023/11/14 03:04:40;;;;;;;40.80;7.97;;;13.90;99.90;;;;;;4956307;28;38180;-79
2023/11/14 03:07:06;;;;;;;48.40;8.82;;;13.90;99.90;;;;;;4953407;28;37020;-79
2023/11/14 03:09:32;;;;;;;33.75;6.57;;;13.90;99.90;;;;;;4974402;28;37111;-79
2023/11/14 03:11:59;;;;;;;51.65;8.50;;;13.90;99.90;;;;;;4952477;28;37813;-79
2023/11/14 03:14:25;;;;;;;41.05;6.07;;;13.90;99.90;;;;;;4950095;28;37358;-78
2023/11/14 03:16:51;;;;;;;46.28;7.30;;;13.90;99.90;;;;;;4971015;28;38182;-79
2023/11/14 03:19:17;;;;;;;44.60;7.70;;;13.90;99.90;;;;;;4969524;28;37030;-79
2023/11/14 03:21:43;;;;;;;48.22;8.30;;;13.90;99.90;;;;;;4949650;28;37586;-79
2023/11/14 03:24:11;;;;;;;41.83;7.57;;;13.80;99.90;;;;;;4955672;28;39318;-79
2023/11/14 03:26:37;;;;;;;47.85;7.53;;;13.80;99.90;;;;;;4957717;28;38122;-78
2023/11/14 03:29:03;;;;;;;47.10;7.72;;;13.70;99.90;;;;;;4975344;28;37877;-79
2023/11/14 03:31:29;;;;;;;46.05;8.10;;;13.70;99.90;;;;;;4951990;28;37728;-79
2023/11/14 03:33:55;;;;;;;46.85;6.88;;;13.60;99.90;;;;;;4974743;28;38565;-79
2023/11/14 03:36:21;;;;;;;46.78;7.97;;;13.60;99.90;;;;;;4970903;28;38335;-79
2023/11/14 03:38:47;;;;;;;52.75;8.35;;;13.60;99.90;;;;;;4976609;28;37407;-79
2023/11/14 03:41:14;;;;;;;48.63;8.18;;;13.50;99.90;;;;;;4970308;28;39294;-78
2023/11/14 03:43:40;;;;;;;53.15;8.73;;;13.50;99.90;;;;;;4955797;28;36787;-79
2023/11/14 03:46:07;;;;;;;46.15;7.80;;;13.50;99.90;;;;;;4944617;28;38085;-79
2023/11/14 03:48:33;;;;;;;40.40;7.20;;;13.50;99.90;;;;;;4968859;28;37945;-79
2023/11/14 03:50:59;;;;;;;49.75;6.97;;;13.50;99.90;;;;;;4968002;28;38653;-79
2023/11/14 03:53:25;;;;;;;40.55;8.07;;;13.50;99.90;;;;;;4972258;28;39763;-79
2023/11/14 03:55:51;;;;;;;36.33;6.78;;;13.40;99.90;;;;;;4949169;28;37175;-79
2023/11/14 03:58:18;;;;;;;46.25;7.25;;;13.40;99.90;;;;;;4971191;28;37433;-79
2023/11/14 04:00:46;;;;;;;48.17;7.65;;;13.40;99.90;;;;;;4982299;28;40020;-79
2023/11/14 04:03:12;;;;;;;42.47;6.85;;;13.50;99.90;;;;;;4953837;28;37284;-79
2023/11/14 04:05:38;;;;;;;43.15;7.78;;;13.50;99.90;;;;;;4950945;28;37135;-79
2023/11/14 04:08:05;;;;;;;41.95;7.03;;;13.40;99.90;;;;;;4969513;28;38136;-80
2023/11/14 04:10:31;;;;;;;45.40;6.47;;;13.40;99.90;;;;;;4952220;28;38205;-80
2023/11/14 04:12:58;;;;;;;46.58;8.57;;;13.40;99.90;;;;;;4949197;28;38069;-79
2023/11/14 04:15:24;;;;;;;52.50;8.32;;;13.50;99.90;;;;;;4966502;28;37157;-79
2023/11/14 04:17:50;;;;;;;48.92;9.70;;;13.50;99.90;;;;;;4962248;28;36076;-79
2023/11/14 04:20:16;;;;;;;46.08;7.78;;;13.50;99.90;;;;;;4969258;28;38815;-79
2023/11/14 04:22:42;;;;;;;40.05;7.32;;;13.50;99.90;;;;;;4956743;28;37334;-78
2023/11/14 04:25:09;;;;;;;45.63;7.78;;;13.50;99.90;;;;;;4953945;28;36989;-79
2023/11/14 04:27:35;;;;;;;48.20;8.35;;;13.50;99.90;;;;;;4958318;28;36009;-80
2023/11/14 04:30:01;;;;;;;47.40;7.78;;;13.50;99.90;;;;;;4948589;28;38507;-78
2023/11/14 04:32:27;;;;;;;52.70;8.80;;;13.50;99.90;;;;;;4953924;28;37583;-79
2023/11/14 04:34:53;;;;;;;44.35;7.93;;;13.50;99.90;;;;;;4951549;28;36897;-78
2023/11/14 04:37:19;;;;;;;50.85;7.65;;;13.40;99.90;;;;;;4951616;28;36083;-79
2023/11/14 04:39:45;;;;;;;50.38;7.47;;;13.40;99.90;;;;;;4974355;28;38812;-79
2023/11/14 04:42:11;;;;;;;47.38;8.13;;;13.40;99.90;;;;;;4964518;28;38924;-79
2023/11/14 04:44:37;;;;;;;44.05;8.20;;;13.50;99.90;;;;;;4972065;28;37638;-79
2023/11/14 04:47:05;;;;;;;40.92;7.60;;;13.50;99.90;;;;;;4947370;28;36509;-78
2023/11/14 04:49:32;;;;;;;43.60;7.50;;;13.50;99.90;;;;;;4947268;28;37595;-79
2023/11/14 04:51:58;;;;;;;45.95;7.22;;;13.50;99.90;;;;;;4968865;28;38416;-79
2023/11/14 04:54:24;;;;;;;40.70;7.50;;;13.50;99.90;;;;;;4958368;28;35964;-79
2023/11/14 04:56:50;;;;;;;59.20;9.73;;;13.50;99.90;;;;;;4953458;28;36054;-78
2023/11/14 04:59:17;;;;;;;45.95;7.78;;;13.50;99.90;;;;;;4953591;28;38110;-79
2023/11/14 05:01:43;;;;;;;46.05;8.38;;;13.50;99.90;;;;;;4967367;28;38450;-79
2023/11/14 05:04:09;;;;;;;52.25;9.38;;;13.50;99.90;;;;;;4949350;28;36785;-79
2023/11/14 05:06:35;;;;;;;38.10;6.80;;;13.50;99.90;;;;;;4950333;28;36780;-79
2023/11/14 05:09:07;;;;;;;50.70;6.95;;;13.50;99.90;;;;;;4968809;28;38772;-79
2023/11/14 05:11:37;;;;;;;47.72;7.55;;;13.50;99.90;;;;;;4969051;28;47820;-79
2023/11/14 05:14:06;;;;;;;44.25;7.90;;;13.60;99.90;;;;;;4969195;28;38262;-79
2023/11/14 05:16:42;;;;;;;40.45;6.72;;;13.50;99.90;;;;;;4964051;28;37158;-78
2023/11/14 05:19:09;;;;;;;45.38;9.60;;;13.50;99.90;;;;;;4970900;28;39191;-79
2023/11/14 05:21:39;;;;;;;45.50;7.43;;;13.50;99.90;;;;;;4969083;28;39756;-79
2023/11/14 05:24:09;;;;;;;43.20;7.15;;;13.40;99.90;;;;;;4970380;28;38911;-78
2023/11/14 05:26:35;;;;;;;55.90;7.25;;;13.40;99.90;;;;;;4952568;28;37010;-79
2023/11/14 05:29:01;;;;;;;44.35;8.50;;;13.40;99.90;;;;;;4949440;28;37750;-79
2023/11/14 05:31:27;;;;;;;48.53;8.52;;;13.40;99.90;;;;;;4966907;28;46965;-78
2023/11/14 05:33:53;;;;;;;47.38;8.00;;;13.30;99.90;;;;;;4968843;28;37537;-79
2023/11/14 05:36:19;;;;;;;48.10;8.18;;;13.30;99.90;;;;;;4969654;28;37137;-79
2023/11/14 05:38:45;;;;;;;46.75;6.63;;;13.30;99.90;;;;;;4967520;28;38671;-79
2023/11/14 05:41:11;;;;;;;39.78;7.63;;;13.30;99.90;;;;;;4949308;28;38962;-79
2023/11/14 05:43:37;;;;;;;49.08;9.50;;;13.30;99.90;;;;;;4953959;28;37016;-79
2023/11/14 05:46:03;;;;;;;55.50;8.88;;;13.30;99.90;;;;;;4958194;28;37022;-79
2023/11/14 05:48:30;;;;;;;40.35;8.77;;;13.30;99.90;;;;;;4951468;28;37949;-79
2023/11/14 05:50:56;;;;;;;48.25;8.45;;;13.30;99.90;;;;;;4944582;28;36798;-79
2023/11/14 05:53:22;;;;;;;50.28;8.23;;;13.40;99.90;;;;;;4950736;28;37288;-79
2023/11/14 05:55:48;;;;;;;43.58;7.43;;;13.40;99.90;;;;;;4952278;28;37120;-78
2023/11/14 05:58:15;;;;;;;39.60;7.40;;;13.40;99.90;;;;;;4961472;28;38707;-79
2023/11/14 06:00:41;;;;;;;47.20;8.48;;;13.40;99.90;;;;;;4949228;28;38215;-79
2023/11/14 06:03:07;;;;;;;50.85;9.00;;;13.40;99.90;;;;;;4950426;28;37154;-79
2023/11/14 06:05:33;;;;;;;55.70;9.55;;;13.40;99.90;;;;;;4947662;28;36008;-79
2023/11/14 06:08:00;;;;;;;51.70;7.57;;;13.40;99.90;;;;;;4966875;28;40613;-78
2023/11/14 06:10:26;;;;;;;45.13;8.23;;;13.40;99.90;;;;;;4969045;28;38412;-79
2023/11/14 06:12:52;;;;;;;57.33;9.60;;;13.40;99.90;;;;;;4942982;28;37672;-79
2023/11/14 06:15:18;;;;;;;55.92;9.07;;;13.40;99.90;;;;;;4962331;28;37612;-79
2023/11/14 06:17:47;;;;;;;43.83;7.65;;;13.50;99.90;;;;;;4970291;28;40587;-79
2023/11/14 06:20:14;;;;;;;45.03;8.50;;;13.40;99.90;;;;;;4972079;28;39681;-80
2023/11/14 06:22:41;;;;;;;53.13;8.13;;;13.40;99.90;;;;;;4954487;28;37020;-79
2023/11/14 06:25:07;;;;;;;57.08;8.02;;;13.50;99.90;;;;;;4950667;28;37271;-79
2023/11/14 06:27:34;;;;;;;52.80;8.90;;;13.50;99.90;;;;;;4957066;28;37908;-78
2023/11/14 06:30:00;;;;;;;47.35;7.93;;;13.50;99.90;;;;;;4973513;28;38625;-80
2023/11/14 06:32:28;;;;;;;50.53;8.43;;;13.50;99.90;;;;;;4950200;28;37379;-79
2023/11/14 06:34:54;;;;;;;51.15;8.05;;;13.50;99.90;;;;;;4958182;28;37437;-80
2023/11/14 06:37:21;;;;;;;50.78;8.93;;;13.50;99.90;;;;;;4954587;28;37382;-81
2023/11/14 06:39:47;;;;;;;53.13;7.95;;;13.40;99.90;;;;;;4955273;28;37120;-80
2023/11/14 06:42:14;;;;;;;46.15;9.60;;;13.40;99.90;;;;;;4958872;28;36875;-81
2023/11/14 06:44:43;;;;;;;47.60;7.95;;;13.30;99.90;;;;;;4960435;28;36773;-80
2023/11/14 06:47:10;;;;;;;52.58;9.23;;;13.20;99.90;;;;;;4980961;28;39739;-80
2023/11/14 06:49:37;;;;;;;61.42;9.15;;;13.20;99.90;;;;;;4979693;28;38826;-79
2023/11/14 06:52:03;;;;;;;57.05;7.85;;;13.20;99.90;;;;;;4975046;28;39290;-79
2023/11/14 06:54:29;;;;;;;57.17;7.47;;;13.10;99.90;;;;;;4955830;28;34603;-80
2023/11/14 06:56:55;;;;;;;51.88;10.32;;;13.20;99.90;;;;;;4952245;28;37591;-79
2023/11/14 06:59:22;;;;;;;53.45;8.38;;;13.20;99.90;;;;;;4950968;28;38107;-79
2023/11/14 07:01:52;;;;;;;38.67;7.40;;;13.30;99.90;;;;;;4958428;28;36869;-78
2023/11/14 07:04:19;;;;;;;55.70;7.45;;;13.30;99.90;;;;;;4946856;28;36068;-79
2023/11/14 07:06:54;;;;;;;55.35;7.05;;;13.40;99.90;;;;;;4968505;28;38527;-78
2023/11/14 07:09:23;;;;;;;52.58;9.27;;;13.40;99.90;;;;;;4940385;28;39763;-78
2023/11/14 07:11:49;;;;;;;49.60;7.22;;;13.50;99.90;;;;;;4956639;28;38016;-78
2023/11/14 07:14:19;;;;;;;43.13;7.55;;;13.50;99.90;;;;;;4926001;28;37462;-79
2023/11/14 07:16:46;;;;;;;52.58;7.25;;;13.50;99.90;;;;;;4946292;28;39113;-78
2023/11/14 07:19:12;;;;;;;46.13;8.48;;;13.50;99.90;;;;;;4928496;28;36524;-78
2023/11/14 07:21:38;;;;;;;47.95;7.95;;;13.60;99.90;;;;;;4929685;28;36905;-79
2023/11/14 07:24:05;;;;;;;48.35;8.63;;;13.60;99.90;;;;;;4950267;28;38013;-79
2023/11/14 07:26:32;;;;;;;47.45;8.35;;;13.50;99.90;;;;;;4950554;28;38842;-79
2023/11/14 07:28:58;;;;;;;49.60;8.13;;;13.50;99.90;;;;;;4927356;28;37279;-80
2023/11/14 07:31:24;;;;;;;46.50;8.38;;;13.50;99.90;;;;;;4934829;28;37952;-79
2023/11/14 07:33:50;;;;;;;46.60;8.73;;;13.50;99.90;;;;;;4939193;28;37059;-79
2023/11/14 07:36:16;;;;;;;45.22;8.43;;;13.50;99.90;;;;;;4931993;28;37327;-79
2023/11/14 07:38:44;;;;;;;41.65;7.57;;;13.50;99.90;;;;;;4929779;28;38443;-79
2023/11/14 07:41:10;;;;;;;54.90;7.70;;;13.40;99.90;;;;;;4929765;28;37779;-78
2023/11/14 07:43:37;;;;;;;48.65;7.10;;;13.40;99.90;;;;;;4929737;28;36236;-78
2023/11/14 07:46:05;;;;;;;58.53;8.23;;;13.30;99.90;;;;;;4931884;28;37605;-79
2023/11/14 07:48:38;;;;;;;54.90;8.25;;;13.30;99.90;;;;;;4925479;28;36994;-79
2023/11/14 07:51:04;;;;;;;52.75;7.70;;;13.30;99.90;;;;;;4946961;28;38298;-77
2023/11/14 07:53:30;;;;;;;48.58;8.05;;;13.30;99.90;;;;;;4927021;28;36439;-79
2023/11/14 07:55:56;;;;;;;52.42;7.97;;;13.30;99.90;;;;;;4926188;28;37023;-79
2023/11/14 07:58:25;;;;;;;50.30;8.02;;;13.30;99.90;;;;;;4923192;28;37513;-79
2023/11/14 08:00:52;;;;;;;49.15;8.60;;;13.30;99.90;;;;;;4945672;28;37486;-79
2023/11/14 08:03:19;;;;;;;52.20;7.72;;;13.40;99.90;;;;;;4941879;28;38656;-79
2023/11/14 08:05:45;;;;;;;50.85;7.82;;;13.40;99.90;;;;;;4942998;28;38226;-79
2023/11/14 08:08:13;;;;;;;52.22;8.68;;;13.40;99.90;;;;;;4925204;28;37064;-77
2023/11/14 08:10:40;;;;;;;52.67;7.45;;;13.50;99.90;;;;;;4918554;28;38261;-78
2023/11/14 08:13:07;;;;;;;61.22;8.55;;;13.50;99.90;;;;;;4923479;28;35912;-79
2023/11/14 08:15:37;;;;;;;44.50;7.75;;;13.40;99.90;;;;;;4923333;28;39187;-78
2023/11/14 08:18:05;;;;;;;55.20;8.00;;;13.40;99.90;;;;;;4915490;28;39025;-79
2023/11/14 08:20:31;;;;;;;48.72;7.75;;;13.50;99.90;;;;;;4930500;28;37677;-78
2023/11/14 08:22:57;;;;;;;43.25;7.30;;;13.50;99.90;;;;;;4941231;28;37650;-77
2023/11/14 08:25:23;;;;;;;48.20;7.28;;;13.50;99.90;;;;;;4926691;28;40277;-78
2023/11/14 08:27:50;;;;;;;43.55;8.43;;;13.50;99.90;;;;;;4924710;28;39113;-79
2023/11/14 08:30:19;;;;;;;50.60;8.48;;;13.50;99.90;;;;;;4923974;28;38832;-79
2023/11/14 08:32:47;;;;;;;59.33;7.80;;;13.50;99.90;;;;;;4920729;28;36786;-78
2023/11/14 08:35:13;;;;;;;56.83;7.93;;;13.50;99.90;;;;;;4945362;28;38545;-79
2023/11/14 08:37:39;;;;;;;44.00;8.35;;;13.50;99.90;;;;;;4941985;28;40562;-78
2023/11/14 08:40:09;;;;;;;48.65;7.70;;;13.50;99.90;;;;;;4946136;28;37466;-79
2023/11/14 08:42:38;;;;;;;45.72;8.05;;;13.50;99.90;;;;;;4943419;28;37061;-78
2023/11/14 08:45:05;;;;;;;58.38;8.82;;;13.40;99.90;;;;;;4926408;28;39000;-78
2023/11/14 08:47:31;;;;;;;58.63;8.90;;;13.40;99.90;;;;;;4943976;28;38006;-79
2023/11/14 08:49:57;;;;;;;50.67;8.45;;;13.30;99.90;;;;;;4927381;28;37184;-78
2023/11/14 08:52:23;;;;;;;60.17;9.05;;;13.30;99.90;;;;;;4916100;28;36004;-78
2023/11/14 08:54:49;;;;;;;50.67;8.38;;;13.30;99.90;;;;;;4936715;28;38331;-78
2023/11/14 08:57:19;;;;;;;56.40;8.85;;;13.30;99.90;;;;;;4924818;28;39103;-78
2023/11/14 08:59:46;;;;;;;48.78;7.78;;;13.40;99.90;;;;;;4931881;28;37487;-79
2023/11/14 09:02:13;;;;;;;50.30;8.07;;;13.50;99.90;;;;;;4924289;28;37142;-79
2023/11/14 09:04:40;;;;;;;48.15;7.25;;;13.50;99.90;;;;;;4934949;28;38309;-79
2023/11/14 09:07:06;;;;;;;39.28;7.35;;;13.50;99.90;;;;;;4936348;28;37707;-79
2023/11/14 09:09:33;;;;;;;46.15;8.65;;;13.60;99.90;;;;;;4919376;28;37835;-78
2023/11/14 09:12:00;;;;;;;48.35;7.15;;;13.70;99.90;;;;;;4917188;28;36740;-78
2023/11/14 09:14:26;;;;;;;50.88;9.65;;;13.80;99.90;;;;;;4947557;28;41176;-79
2023/11/14 09:16:53;;;;;;;60.92;9.45;;;13.90;99.90;;;;;;4926786;28;39221;-79
2023/11/14 09:19:19;;;;;;;46.20;7.82;;;14.00;99.90;;;;;;4943837;28;39976;-80
2023/11/14 09:21:46;;;;;;;42.67;7.57;;;14.00;99.90;;;;;;4925079;28;36818;-78
2023/11/14 09:24:13;;;;;;;51.45;7.68;;;14.10;99.90;;;;;;4940148;28;38359;-78
2023/11/14 09:26:40;;;;;;;41.88;8.05;;;14.10;99.90;;;;;;4943070;28;38584;-79
2023/11/14 09:29:06;;;;;;;50.67;8.05;;;14.10;99.90;;;;;;4945636;28;37743;-79
2023/11/14 09:31:32;;;;;;;46.50;7.93;;;14.10;99.90;;;;;;4943673;28;37465;-79
2023/11/14 09:33:59;;;;;;;45.45;6.97;;;14.10;99.90;;;;;;4924504;28;38298;-79
2023/11/14 09:36:26;;;;;;;35.97;6.95;;;14.10;99.90;;;;;;4927651;28;39414;-79
2023/11/14 09:38:52;;;;;;;47.40;7.15;;;14.10;99.90;;;;;;4911322;28;36143;-79
2023/11/14 09:41:19;;;;;;;44.28;8.15;;;14.10;99.90;;;;;;4932142;28;38775;-78
2023/11/14 09:43:46;;;;;;;48.60;8.23;;;14.10;99.90;;;;;;4908788;28;40455;-78
2023/11/14 09:46:13;;;;;;;47.88;7.80;;;14.20;99.90;;;;;;4908859;28;37066;-79
2023/11/14 09:48:40;;;;;;;48.78;8.45;;;14.30;99.90;;;;;;4917909;28;36096;-78
2023/11/14 09:51:06;;;;;;;45.90;7.85;;;14.30;99.90;;;;;;4920960;28;35974;-78
2023/11/14 09:53:35;;;;;;;51.83;8.05;;;14.30;99.90;;;;;;4940018;28;38709;-78
2023/11/14 09:56:03;;;;;;;54.08;7.30;;;14.30;99.90;;;;;;4946145;28;37992;-78
2023/11/14 09:58:29;;;;;;;49.10;7.07;;;14.30;99.90;;;;;;4926075;28;47080;-78
2023/11/14 10:00:59;;;;;;;49.85;9.13;;;14.40;99.90;;;;;;4924867;28;36147;-78
2023/11/14 10:03:28;;;;;;;54.35;9.60;;;14.50;99.90;;;;;;4941372;28;39799;-78
2023/11/14 10:05:54;;;;;;;49.70;7.60;;;14.60;99.90;;;;;;4924177;28;37501;-78
2023/11/14 10:08:21;;;;;;;45.40;7.93;;;14.70;99.90;;;;;;4938616;28;37548;-78
2023/11/14 10:11:10;;;;;;;51.58;8.52;;;14.80;99.90;;;;;;4925386;28;38017;-78
2023/11/14 10:13:40;;;;;;;52.65;8.18;;;14.80;99.90;;;;;;4939134;28;48422;-78
2023/11/14 10:16:20;;;;;;;44.13;8.40;;;14.90;99.90;;;;;;4914668;28;37785;-78
2023/11/14 10:18:49;;;;;;;45.92;8.60;;;15.00;99.90;;;;;;4918184;28;39385;-78
2023/11/14 10:21:31;;;;;;;49.17;8.75;;;14.90;99.90;;;;;;4919445;28;38267;-78
2023/11/14 10:23:58;;;;;;;48.70;8.55;;;14.80;99.90;;;;;;4917581;28;37458;-79
2023/11/14 10:26:25;;;;;;;51.08;9.43;;;14.70;99.90;;;;;;4917567;28;36949;-78
2023/11/14 10:28:54;;;;;;;45.38;8.35;;;14.70;99.90;;;;;;4915317;28;38662;-78
2023/11/14 10:31:41;;;;;;;46.97;9.25;;;14.70;99.90;;;;;;4930881;28;36869;-78
2023/11/14 10:34:24;;;;;;;51.15;8.70;;;14.70;99.90;;;;;;4915772;28;38147;-77
2023/11/14 10:36:51;;;;;;;54.60;8.80;;;14.60;99.90;;;;;;4934110;28;38368;-78
2023/11/14 10:39:18;;;;;;;50.10;7.80;;;14.60;99.90;;;;;;4916418;28;38326;-77
2023/11/14 10:41:45;;;;;;;45.60;9.48;;;14.60;99.90;;;;;;4931169;28;37032;-78
2023/11/14 10:44:13;;;;;;;63.13;10.90;;;14.50;99.90;;;;;;4928686;28;39386;-77
2023/11/14 10:46:58;;;;;;;53.92;9.05;;;14.50;99.90;;;;;;4908820;28;38293;-77
2023/11/14 10:49:24;;;;;;;56.80;9.88;;;14.40;99.90;;;;;;4929070;28;36950;-76
2023/11/14 10:51:52;;;;;;;49.92;9.15;;;14.40;99.90;;;;;;4915608;28;36472;-78
2023/11/14 10:54:18;;;;;;;58.72;9.15;;;14.30;99.90;;;;;;4935397;28;38560;-78
2023/11/14 10:56:45;;;;;;;41.95;8.07;;;14.40;99.90;;;;;;4918203;28;37413;-78
2023/11/14 10:59:13;;;;;;;49.35;9.77;;;14.40;99.90;;;;;;4918351;28;37869;-78
2023/11/14 11:01:46;;;;;;;56.30;9.10;;;14.30;99.90;;;;;;4915931;28;36773;-78
2023/11/14 11:04:14;;;;;;;40.85;7.43;;;14.30;99.90;;;;;;4932977;28;40384;-78
2023/11/14 11:06:41;;;;;;;44.40;7.15;;;14.30;99.90;;;;;;4933648;28;38446;-78
2023/11/14 11:09:10;;;;;;;40.53;6.95;;;14.30;99.90;;;;;;4933848;28;38126;-78
2023/11/14 11:11:57;;;;;;;49.45;8.25;;;14.30;99.90;;;;;;4911938;28;37170;-78
2023/11/14 11:14:24;;;;;;;47.40;8.27;;;14.40;99.90;;;;;;4915443;28;40720;-78
2023/11/14 11:16:51;;;;;;;37.20;7.05;;;14.40;99.90;;;;;;4935266;28;39155;-78
2023/11/14 11:19:25;;;;;;;43.33;7.72;;;14.50;99.90;;;;;;4934764;28;35901;-78
2023/11/14 11:22:17;;;;;;;35.42;6.85;;;14.50;99.90;;;;;;4916986;28;36773;-77
2023/11/14 11:25:27;;;;;;;43.17;7.45;;;14.50;99.90;;;;;;4932779;28;48465;-77
2023/11/14 11:27:53;;;;;;;41.38;7.15;;;14.60;99.90;;;;;;4935734;28;48116;-78
2023/11/14 11:30:20;;;;;;;46.15;8.60;;;14.60;99.90;;;;;;4919432;28;38174;-78
2023/11/14 11:32:50;;;;;;;39.70;6.30;;;14.60;99.90;;;;;;4916948;28;36694;-79
2023/11/14 11:35:16;;;;;;;33.95;6.40;;;14.60;99.90;;;;;;4934032;28;38686;-78
2023/11/14 11:38:07;;;;;;;42.28;7.93;;;14.60;99.90;;;;;;4933071;28;38130;-79
2023/11/14 11:40:33;;;;;;;55.47;8.07;;;14.70;99.90;;;;;;4938599;28;48547;-79
2023/11/14 11:43:09;;;;;;;46.20;7.30;;;14.60;99.90;;;;;;4938453;28;36540;-79
2023/11/14 11:45:43;;;;;;;45.35;7.38;;;14.60;99.90;;;;;;4933326;28;48366;-79
2023/11/14 11:48:26;;;;;;;40.13;8.05;;;14.60;99.90;;;;;;4915220;28;38803;-78
2023/11/14 11:50:53;;;;;;;41.00;8.15;;;14.60;99.90;;;;;;4919087;28;36581;-79
2023/11/14 11:53:42;;;;;;;47.03;6.88;;;14.60;99.90;;;;;;4934162;28;37590;-79
2023/11/14 11:56:12;;;;;;;47.15;7.55;;;14.60;99.90;;;;;;4937404;28;39570;-78
2023/11/14 11:58:48;;;;;;;37.08;6.70;;;14.50;99.90;;;;;;4933917;28;40335;-78
2023/11/14 12:01:18;;;;;;;39.13;6.47;;;14.50;99.90;;;;;;4918531;28;38198;-78
2023/11/14 12:03:44;;;;;;;37.47;6.88;;;14.50;99.90;;;;;;4917029;28;36334;-78
2023/11/14 12:06:13;;;;;;;40.92;7.50;;;14.50;99.90;;;;;;4934678;28;38424;-78
2023/11/14 12:08:39;;;;;;;36.22;7.78;;;14.50;99.90;;;;;;4923367;28;37159;-78
2023/11/14 12:11:08;;;;;;;40.63;7.63;;;14.50;99.90;;;;;;4922932;28;36236;-78
2023/11/14 12:13:34;;;;;;;36.50;6.22;;;14.50;99.90;;;;;;4919231;28;35241;-78
2023/11/14 12:16:00;;;;;;;48.33;6.95;;;14.50;99.90;;;;;;4920027;28;36560;-78
2023/11/14 12:18:26;;;;;;;42.83;6.90;;;14.50;99.90;;;;;;4916484;28;38504;-78
2023/11/14 12:20:52;;;;;;;38.78;6.32;;;14.50;99.90;;;;;;4936414;28;38052;-78
2023/11/14 12:23:19;;;;;;;33.10;6.35;;;14.40;99.90;;;;;;4917697;28;36319;-78
2023/11/14 12:25:45;;;;;;;36.13;6.60;;;14.40;99.90;;;;;;4919890;28;38575;-78
2023/11/14 12:28:11;;;;;;;38.45;7.65;;;14.30;99.90;;;;;;4917926;28;37660;-78
2023/11/14 12:30:38;;;;;;;42.58;6.95;;;14.30;99.90;;;;;;4931773;28;39286;-78
2023/11/14 12:33:09;;;;;;;34.05;6.25;;;14.30;99.90;;;;;;4913031;28;36254;-78
2023/11/14 12:35:57;;;;;;;34.85;6.57;;;14.30;99.90;;;;;;4933478;28;38649;-78
2023/11/14 12:38:34;;;;;;;24.90;4.95;;;14.20;99.90;;;;;;4919484;28;38210;-80
2023/11/14 12:41:16;;;;;;;21.50;4.55;;;14.20;99.90;;;;;;4927187;28;37201;-79